This is the latest recevied weather packets stored in our database for station/object AB4KY. If no packets are shown the sender has not sent any weather packets the latest 10 day(s).
| Time | Temp. | Humidity | Pressure | Rain* | Wind** | Luminosity | Snow |
|---|---|---|---|---|---|---|---|
| 1777436926 | 16.11° C | 99% | 1011.1 hPa | 0 mm | - | 0 W/m² | - |
| 1777436623 | 15.56° C | 99% | 1011.3 hPa | 0 mm | - | 0 W/m² | - |
| 1777436319 | 15.56° C | 99% | 1011.4 hPa | 0 mm | - | 0 W/m² | - |
| 1777436015 | 16.11° C | 99% | 1011.1 hPa | 0.51 mm | - | 0 W/m² | - |
| 1777435712 | 16.11° C | 99% | 1011.3 hPa | 0.51 mm | - | 0 W/m² | - |
| 1777435407 | 16.11° C | 99% | 1011.3 hPa | 0 mm | - | 0 W/m² | - |
| 1777435102 | 16.11° C | 99% | 1011.5 hPa | 0.51 mm | - | 0 W/m² | - |
| 1777434798 | 16.11° C | 99% | 1011.4 hPa | 3.05 mm | - | 0 W/m² | - |
| 1777434498 | 16.67° C | 98% | 1010.7 hPa | 7.11 mm | - | 0 W/m² | - |
| 1777434195 | 16.67° C | 96% | 1011 hPa | 5.33 mm | - | 0 W/m² | - |
| 1777433892 | 17.78° C | 91% | 1011.5 hPa | 0 mm | - | 0 W/m² | - |
| 1777433589 | 17.78° C | 94% | 1010.6 hPa | 0 mm | - | 0 W/m² | - |
| 1777433289 | 17.78° C | 94% | 1009.8 hPa | 0 mm | - | 0 W/m² | - |
| 1777432986 | 17.22° C | 96% | 1009.4 hPa | 0 mm | - | 0 W/m² | - |
| 1777432680 | 17.22° C | 97% | 1009.6 hPa | 0 mm | - | 0 W/m² | - |
| 1777432377 | 17.22° C | 98% | 1009.7 hPa | 0 mm | - | 0 W/m² | - |
| 1777432077 | 17.22° C | 98% | 1009.9 hPa | 0 mm | - | 0 W/m² | - |
| 1777431772 | 17.22° C | 98% | 1010.1 hPa | 0 mm | - | 0 W/m² | - |
| 1777431468 | 17.22° C | 98% | 1010.6 hPa | 0 mm | - | 0 W/m² | - |
| 1777431164 | 17.22° C | 98% | 1010.5 hPa | 0 mm | - | 0 W/m² | - |
| 1777430860 | 17.22° C | 98% | 1010.9 hPa | 0 mm | - | 0 W/m² | - |
| 1777430557 | 17.22° C | 97% | 1010.7 hPa | 0 mm | - | 0 W/m² | - |
| 1777430252 | 17.22° C | 97% | 1010.9 hPa | 0 mm | - | 0 W/m² | - |
| 1777429947 | 17.78° C | 97% | 1011 hPa | 0 mm | - | 0 W/m² | - |
| 1777429645 | 17.78° C | 97% | 1010.8 hPa | 0 mm | - | 0 W/m² | - |
* Rain latest hour (hover to see other rain measurements)
** Current wind speed in m/s (hover to see current wind gust speed)